Time;durP1;ratioP1;P1;durP2;ratioP2;P2;SDS_P1;SDS_P2;PMS_P1;PMS_P2;Temp;Humidity;BMP_temperature;BMP_pressure;BME280_temperature;BME280_humidity;BME280_pressure;Samples;Min_cycle;Max_cycle;Signal;HPM_P1;HPM_P2
2022/06/11 00:00:27;;;;;;;71.25;23.38;;;;;;;;;;4911052;29;20048;-72
2022/06/11 00:02:53;;;;;;;36.88;14.98;;;;;;;;;;4914766;29;20462;-72
2022/06/11 00:05:21;;;;;;;30.02;13.63;;;;;;;;;;4904146;29;20493;-72
2022/06/11 00:07:49;;;;;;;49.42;14.93;;;;;;;;;;4904326;29;20044;-72
2022/06/11 00:10:15;;;;;;;30.30;13.88;;;;;;;;;;4913186;29;20119;-67
2022/06/11 00:12:42;;;;;;;45.75;14.18;;;;;;;;;;4899612;29;23549;-67
2022/06/11 00:15:09;;;;;;;40.75;13.48;;;;;;;;;;4898507;29;20502;-69
2022/06/11 00:17:35;;;;;;;39.50;13.88;;;;;;;;;;4902115;29;20139;-68
2022/06/11 00:20:03;;;;;;;33.13;12.98;;;;;;;;;;4906361;29;20076;-67
2022/06/11 00:22:29;;;;;;;38.53;12.80;;;;;;;;;;4899032;29;20531;-67
2022/06/11 00:24:56;;;;;;;28.42;12.98;;;;;;;;;;4900874;29;20036;-67
2022/06/11 00:27:23;;;;;;;34.13;13.63;;;;;;;;;;4897507;29;20083;-67
2022/06/11 00:29:49;;;;;;;33.20;14.13;;;;;;;;;;4912212;29;20048;-67
2022/06/11 00:32:16;;;;;;;29.30;13.25;;;;;;;;;;4911632;29;20036;-68
2022/06/11 00:34:43;;;;;;;40.80;17.33;;;;;;;;;;4911416;29;20055;-67
2022/06/11 00:37:11;;;;;;;27.58;12.85;;;;;;;;;;4912633;29;20059;-66
2022/06/11 00:39:38;;;;;;;43.65;12.93;;;;;;;;;;4896787;29;20048;-66
2022/06/11 00:42:07;;;;;;;41.33;12.18;;;;;;;;;;4910435;29;20052;-66
2022/06/11 00:44:34;;;;;;;41.75;13.45;;;;;;;;;;4900155;29;20136;-66
2022/06/11 00:47:04;;;;;;;26.70;10.85;;;;;;;;;;4905320;29;20051;-65
2022/06/11 00:49:31;;;;;;;23.88;10.25;;;;;;;;;;4909845;29;20051;-68
2022/06/11 00:52:04;;;;;;;25.33;9.43;;;;;;;;;;4906237;29;20123;-68
2022/06/11 00:54:32;;;;;;;38.72;10.40;;;;;;;;;;4897848;29;20048;-68
2022/06/11 00:57:00;;;;;;;22.65;10.50;;;;;;;;;;4915178;29;20549;-66
2022/06/11 00:59:33;;;;;;;36.97;10.57;;;;;;;;;;4908564;29;20058;-66
2022/06/11 01:02:00;;;;;;;38.38;13.35;;;;;;;;;;4906531;29;20049;-65
2022/06/11 01:04:32;;;;;;;27.77;10.75;;;;;;;;;;4900075;29;20148;-66
2022/06/11 01:07:05;;;;;;;26.08;9.90;;;;;;;;;;4899929;29;20486;-66
2022/06/11 01:09:31;;;;;;;34.23;10.10;;;;;;;;;;4896935;29;20123;-67
2022/06/11 01:12:16;;;;;;;26.80;9.80;;;;;;;;;;4913332;29;20044;-67
2022/06/11 01:15:01;;;;;;;30.40;10.57;;;;;;;;;;4902914;29;20044;-65
2022/06/11 01:17:40;;;;;;;22.77;8.30;;;;;;;;;;4899962;29;20048;-66
2022/06/11 01:20:10;;;;;;;32.75;12.80;;;;;;;;;;4900091;29;20144;-65
2022/06/11 01:22:43;;;;;;;27.65;10.07;;;;;;;;;;4899829;29;20145;-68
2022/06/11 01:25:28;;;;;;;22.27;8.18;;;;;;;;;;4898428;29;20076;-69
2022/06/11 01:28:03;;;;;;;30.30;8.93;;;;;;;;;;4914884;29;20115;-68
2022/06/11 01:30:41;;;;;;;28.17;8.55;;;;;;;;;;4897287;29;20080;-68
2022/06/11 01:33:11;;;;;;;17.13;7.97;;;;;;;;;;4897874;29;20502;-67
2022/06/11 01:35:38;;;;;;;28.75;9.18;;;;;;;;;;4899724;29;20079;-68
2022/06/11 01:38:23;;;;;;;19.75;7.88;;;;;;;;;;4899455;29;20116;-69
2022/06/11 01:41:12;;;;;;;21.30;8.23;;;;;;;;;;4899740;29;20192;-64
2022/06/11 01:43:40;;;;;;;14.07;7.35;;;;;;;;;;4902317;29;20044;-64
2022/06/11 01:46:12;;;;;;;34.13;9.00;;;;;;;;;;4912766;29;20178;-64
2022/06/11 01:48:48;;;;;;;36.72;9.35;;;;;;;;;;4898004;29;20072;-64
2022/06/11 01:51:24;;;;;;;16.83;7.55;;;;;;;;;;4901880;29;20083;-64
2022/06/11 01:53:58;;;;;;;22.15;8.25;;;;;;;;;;4915205;29;20052;-64
2022/06/11 01:56:28;;;;;;;25.60;10.02;;;;;;;;;;4902613;29;20124;-64
2022/06/11 01:59:05;;;;;;;29.83;8.77;;;;;;;;;;4904817;29;20559;-64
2022/06/11 02:01:41;;;;;;;16.35;7.75;;;;;;;;;;4912849;29;20032;-64
2022/06/11 02:04:07;;;;;;;23.08;8.05;;;;;;;;;;4901441;29;20100;-66
2022/06/11 02:06:57;;;;;;;39.72;9.63;;;;;;;;;;4916237;29;20043;-67
2022/06/11 02:09:24;;;;;;;16.38;8.15;;;;;;;;;;4918855;29;20070;-72
2022/06/11 02:12:13;;;;;;;20.20;7.72;;;;;;;;;;4906860;29;20068;-71
2022/06/11 02:14:46;;;;;;;28.85;8.48;;;;;;;;;;4903186;29;20048;-65
2022/06/11 02:17:22;;;;;;;20.70;8.27;;;;;;;;;;4903110;29;20100;-65
2022/06/11 02:19:50;;;;;;;39.03;9.27;;;;;;;;;;4902796;29;20044;-68
2022/06/11 02:22:29;;;;;;;20.42;7.70;;;;;;;;;;4903029;29;20119;-67
2022/06/11 02:25:05;;;;;;;29.98;8.77;;;;;;;;;;4903027;29;20071;-67
2022/06/11 02:27:33;;;;;;;27.88;8.80;;;;;;;;;;4900197;29;20083;-67
2022/06/11 02:29:59;;;;;;;22.73;8.82;;;;;;;;;;4902094;29;20132;-67
2022/06/11 02:32:27;;;;;;;17.42;8.85;;;;;;;;;;4910940;29;20077;-67
2022/06/11 02:34:56;;;;;;;27.02;9.68;;;;;;;;;;4913488;29;20123;-66
2022/06/11 02:37:23;;;;;;;15.20;8.48;;;;;;;;;;4913631;29;20100;-64
2022/06/11 02:39:51;;;;;;;28.48;8.65;;;;;;;;;;4902296;29;20083;-64
2022/06/11 02:42:18;;;;;;;16.20;8.20;;;;;;;;;;4899565;29;20068;-65
2022/06/11 02:44:45;;;;;;;38.95;9.18;;;;;;;;;;4913038;29;20107;-65
2022/06/11 02:47:13;;;;;;;14.50;8.57;;;;;;;;;;4910342;29;20060;-65
2022/06/11 02:49:40;;;;;;;32.03;9.32;;;;;;;;;;4911486;29;20048;-65
2022/06/11 02:52:08;;;;;;;43.17;9.90;;;;;;;;;;4902061;29;20127;-67
2022/06/11 02:54:35;;;;;;;36.25;8.98;;;;;;;;;;4900174;29;20079;-66
2022/06/11 02:57:03;;;;;;;32.20;8.45;;;;;;;;;;4917333;29;20146;-67
2022/06/11 02:59:29;;;;;;;13.48;7.18;;;;;;;;;;4910858;29;20048;-67
2022/06/11 03:01:56;;;;;;;25.48;7.78;;;;;;;;;;4909006;29;20493;-67
2022/06/11 03:04:24;;;;;;;13.15;6.20;;;;;;;;;;4902434;29;20060;-66
2022/06/11 03:06:51;;;;;;;20.33;5.65;;;;;;;;;;4902925;29;20052;-70
2022/06/11 03:09:20;;;;;;;12.07;5.20;;;;;;;;;;4917484;29;20127;-70
2022/06/11 03:11:46;;;;;;;40.05;6.72;;;;;;;;;;4912877;29;20087;-71
2022/06/11 03:14:14;;;;;;;16.27;4.70;;;;;;;;;;4906778;29;20127;-72
2022/06/11 03:16:41;;;;;;;21.67;5.75;;;;;;;;;;4891218;29;20138;-72
2022/06/11 03:19:08;;;;;;;23.33;5.68;;;;;;;;;;4915232;29;20051;-72
2022/06/11 03:21:35;;;;;;;25.27;5.45;;;;;;;;;;4898072;29;20041;-67
2022/06/11 03:24:02;;;;;;;18.45;4.78;;;;;;;;;;4914807;29;20136;-66
2022/06/11 03:26:28;;;;;;;19.10;5.55;;;;;;;;;;4912937;29;20044;-67
2022/06/11 03:28:55;;;;;;;12.07;5.03;;;;;;;;;;4912597;29;20126;-67
2022/06/11 03:31:21;;;;;;;12.82;4.97;;;;;;;;;;4913358;29;20147;-67
2022/06/11 03:33:48;;;;;;;14.35;4.97;;;;;;;;;;4900983;29;20465;-66
2022/06/11 03:36:16;;;;;;;12.32;4.45;;;;;;;;;;4898869;29;20095;-66
2022/06/11 03:38:44;;;;;;;19.90;4.85;;;;;;;;;;4901618;29;20128;-68
2022/06/11 03:41:11;;;;;;;15.32;4.45;;;;;;;;;;4901409;29;20056;-65
2022/06/11 03:43:37;;;;;;;17.48;4.63;;;;;;;;;;4901170;29;20051;-67
2022/06/11 03:46:05;;;;;;;22.25;5.07;;;;;;;;;;4901489;29;20040;-67
2022/06/11 03:48:33;;;;;;;24.95;5.60;;;;;;;;;;4909539;29;20048;-66
2022/06/11 03:51:00;;;;;;;28.83;5.57;;;;;;;;;;4913735;29;20056;-66
2022/06/11 03:53:27;;;;;;;30.08;5.25;;;;;;;;;;4904223;29;20060;-66
2022/06/11 03:55:54;;;;;;;19.38;4.20;;;;;;;;;;4909206;29;20050;-66
2022/06/11 03:58:21;;;;;;;15.20;5.90;;;;;;;;;;4912696;29;20128;-67
2022/06/11 04:03:34;;;;;;;27.73;4.80;;;;;;;;;;4904983;29;20112;-67
2022/06/11 04:06:01;;;;;;;18.63;3.30;;;;;;;;;;4913559;29;20067;-66
2022/06/11 04:08:28;;;;;;;21.83;4.78;;;;;;;;;;4903965;29;20566;-68
2022/06/11 04:10:56;;;;;;;16.65;3.42;;;;;;;;;;4901476;29;20124;-68
2022/06/11 04:13:24;;;;;;;11.10;4.82;;;;;;;;;;4900613;29;20071;-68
2022/06/11 04:15:51;;;;;;;17.27;3.38;;;;;;;;;;4915786;29;20040;-70
2022/06/11 04:18:30;;;;;;;12.18;3.90;;;;;;;;;;4897891;29;20152;-69
2022/06/11 04:20:58;;;;;;;29.20;4.20;;;;;;;;;;4899426;29;20104;-68
2022/06/11 04:23:27;;;;;;;7.40;2.85;;;;;;;;;;4908613;29;20131;-66
2022/06/11 04:25:53;;;;;;;16.30;4.38;;;;;;;;;;4908188;29;20084;-68
2022/06/11 04:28:23;;;;;;;6.80;2.45;;;;;;;;;;4900290;29;20040;-69
2022/06/11 04:30:49;;;;;;;19.83;3.25;;;;;;;;;;4915350;29;20139;-67
2022/06/11 04:33:16;;;;;;;36.40;6.88;;;;;;;;;;4898059;29;20048;-67
2022/06/11 04:35:42;;;;;;;37.85;4.78;;;;;;;;;;4910675;29;20124;-66
2022/06/11 04:38:09;;;;;;;13.30;3.72;;;;;;;;;;4905609;29;20136;-65
2022/06/11 04:40:36;;;;;;;39.88;5.47;;;;;;;;;;4901456;29;20115;-66
2022/06/11 04:43:03;;;;;;;32.95;3.80;;;;;;;;;;4914588;29;20052;-64
2022/06/11 04:45:30;;;;;;;20.48;3.88;;;;;;;;;;4903517;29;20078;-66
2022/06/11 04:47:56;;;;;;;15.43;2.88;;;;;;;;;;4900082;29;20058;-65
2022/06/11 04:50:23;;;;;;;37.60;4.72;;;;;;;;;;4898263;29;20144;-65
2022/06/11 04:52:50;;;;;;;10.88;2.63;;;;;;;;;;4899750;29;20052;-66
2022/06/11 04:55:16;;;;;;;14.60;2.65;;;;;;;;;;4902921;29;20486;-66
2022/06/11 04:57:44;;;;;;;36.47;4.05;;;;;;;;;;4915373;29;20131;-66
2022/06/11 05:00:13;;;;;;;12.18;2.10;;;;;;;;;;4898850;29;20448;-66
2022/06/11 05:02:40;;;;;;;22.88;2.85;;;;;;;;;;4899097;29;20051;-68
2022/06/11 05:05:07;;;;;;;31.92;3.60;;;;;;;;;;4898049;29;20579;-70
2022/06/11 05:07:34;;;;;;;36.03;4.68;;;;;;;;;;4898965;29;20079;-70
2022/06/11 05:10:00;;;;;;;28.20;4.30;;;;;;;;;;4912513;29;20052;-67
2022/06/11 05:12:27;;;;;;;25.52;3.10;;;;;;;;;;4894918;29;20084;-67
2022/06/11 05:14:53;;;;;;;132.20;10.20;;;;;;;;;;4909397;29;20044;-66
2022/06/11 05:17:20;;;;;;;15.85;2.47;;;;;;;;;;4902897;29;20051;-67
2022/06/11 05:19:47;;;;;;;17.13;2.35;;;;;;;;;;4902710;29;20040;-65
2022/06/11 05:22:13;;;;;;;19.63;2.75;;;;;;;;;;4911266;29;20079;-66
2022/06/11 05:24:40;;;;;;;22.27;2.97;;;;;;;;;;4913246;29;20044;-66
2022/06/11 05:27:08;;;;;;;11.90;2.22;;;;;;;;;;4913374;29;20115;-68
2022/06/11 05:29:48;;;;;;;8.38;1.77;;;;;;;;;;4902616;29;20068;-66
2022/06/11 05:32:16;;;;;;;14.20;2.38;;;;;;;;;;4901046;29;20061;-65
2022/06/11 05:34:43;;;;;;;17.77;2.55;;;;;;;;;;4904129;29;20127;-66
2022/06/11 05:37:10;;;;;;;13.57;2.25;;;;;;;;;;4903625;29;20078;-67
2022/06/11 05:39:38;;;;;;;31.05;3.50;;;;;;;;;;4899682;29;20045;-66
2022/06/11 05:42:05;;;;;;;19.80;2.10;;;;;;;;;;4916757;29;20076;-67
2022/06/11 05:44:32;;;;;;;15.13;3.10;;;;;;;;;;4906324;29;20041;-68
2022/06/11 05:46:58;;;;;;;26.02;3.08;;;;;;;;;;4909853;29;20100;-66
2022/06/11 05:49:27;;;;;;;133.65;9.57;;;;;;;;;;4903906;29;20059;-65
2022/06/11 05:51:56;;;;;;;17.90;2.47;;;;;;;;;;4902678;29;20485;-65
2022/06/11 05:54:24;;;;;;;14.38;2.22;;;;;;;;;;4900072;29;20521;-61
2022/06/11 05:56:51;;;;;;;27.58;3.38;;;;;;;;;;4903197;29;20119;-62
2022/06/11 05:59:25;;;;;;;12.38;1.92;;;;;;;;;;4905273;29;20135;-64
2022/06/11 06:01:52;;;;;;;9.57;1.83;;;;;;;;;;4903791;29;20413;-65
2022/06/11 06:04:19;;;;;;;10.68;2.00;;;;;;;;;;4903423;29;20148;-64
2022/06/11 06:06:46;;;;;;;23.20;2.67;;;;;;;;;;4901326;29;20123;-64
2022/06/11 06:09:12;;;;;;;11.88;2.00;;;;;;;;;;4901504;29;20115;-63
2022/06/11 06:11:39;;;;;;;78.13;6.00;;;;;;;;;;4904354;29;20033;-64
2022/06/11 06:14:05;;;;;;;21.92;3.10;;;;;;;;;;4907931;29;20047;-64
2022/06/11 06:16:32;;;;;;;15.85;2.55;;;;;;;;;;4913599;29;20556;-63
2022/06/11 06:19:00;;;;;;;22.88;2.72;;;;;;;;;;4913023;29;20063;-63
2022/06/11 06:21:28;;;;;;;48.25;3.88;;;;;;;;;;4918042;29;20449;-64
2022/06/11 06:23:55;;;;;;;22.65;3.08;;;;;;;;;;4902689;29;20041;-64
2022/06/11 06:26:22;;;;;;;12.80;2.30;;;;;;;;;;4902366;29;20413;-64
2022/06/11 06:28:48;;;;;;;19.65;2.83;;;;;;;;;;4902536;29;20040;-63
2022/06/11 06:31:15;;;;;;;16.52;2.72;;;;;;;;;;4902925;29;20135;-63
2022/06/11 06:33:43;;;;;;;29.55;3.70;;;;;;;;;;4900167;29;20044;-63
2022/06/11 06:36:10;;;;;;;10.38;2.30;;;;;;;;;;4901109;29;20405;-63
2022/06/11 06:38:37;;;;;;;11.07;2.03;;;;;;;;;;4902243;29;20111;-63
2022/06/11 06:41:04;;;;;;;20.25;3.50;;;;;;;;;;4902853;29;20443;-63
2022/06/11 06:43:30;;;;;;;15.35;2.58;;;;;;;;;;4912740;29;20139;-63
2022/06/11 06:45:57;;;;;;;34.90;3.90;;;;;;;;;;4902226;29;20066;-63
2022/06/11 06:48:24;;;;;;;32.58;3.65;;;;;;;;;;4898837;29;20481;-63
2022/06/11 06:50:50;;;;;;;28.65;2.88;;;;;;;;;;4906514;29;20056;-67
2022/06/11 06:53:17;;;;;;;12.52;2.55;;;;;;;;;;4914457;29;20127;-62
2022/06/11 06:55:44;;;;;;;14.55;2.03;;;;;;;;;;4916981;29;20040;-60
2022/06/11 06:58:10;;;;;;;9.40;1.83;;;;;;;;;;4917016;29;20099;-60
2022/06/11 07:00:37;;;;;;;57.10;5.20;;;;;;;;;;4916519;29;20560;-65
2022/06/11 07:03:03;;;;;;;18.92;2.28;;;;;;;;;;4917735;29;20134;-60
2022/06/11 07:05:30;;;;;;;29.63;3.47;;;;;;;;;;4916476;29;20048;-58
2022/06/11 07:07:57;;;;;;;16.63;2.38;;;;;;;;;;4916725;29;20052;-58
2022/06/11 07:10:24;;;;;;;111.25;7.22;;;;;;;;;;4916777;29;20561;-59
2022/06/11 07:12:51;;;;;;;22.63;3.40;;;;;;;;;;4916752;29;20569;-59
2022/06/11 07:15:18;;;;;;;17.52;2.75;;;;;;;;;;4917176;29;20133;-59
2022/06/11 07:17:47;;;;;;;17.63;2.50;;;;;;;;;;4916466;29;20072;-58
2022/06/11 07:20:17;;;;;;;34.03;3.53;;;;;;;;;;4916716;29;20108;-59
2022/06/11 07:22:46;;;;;;;37.83;3.50;;;;;;;;;;4916275;29;20071;-60
2022/06/11 07:25:13;;;;;;;34.10;3.58;;;;;;;;;;4916374;29;20143;-59
2022/06/11 07:27:41;;;;;;;24.80;2.90;;;;;;;;;;4916600;29;20044;-60
2022/06/11 07:30:13;;;;;;;16.63;3.08;;;;;;;;;;4916830;29;20044;-64
2022/06/11 07:32:40;;;;;;;15.15;2.88;;;;;;;;;;4886861;29;20053;-61
2022/06/11 07:35:08;;;;;;;20.70;2.80;;;;;;;;;;4909825;29;20046;-61
2022/06/11 07:37:35;;;;;;;13.48;2.38;;;;;;;;;;4915766;29;20062;-62
2022/06/11 07:40:02;;;;;;;12.32;2.33;;;;;;;;;;4916396;29;20055;-60
2022/06/11 07:42:29;;;;;;;18.98;2.80;;;;;;;;;;4917002;29;20156;-59
2022/06/11 07:44:55;;;;;;;20.17;3.08;;;;;;;;;;4915890;29;20040;-60
2022/06/11 07:50:08;;;;;;;26.83;3.17;;;;;;;;;;4909456;29;20412;-60
2022/06/11 07:52:34;;;;;;;168.60;10.88;;;;;;;;;;4915674;29;20052;-68
2022/06/11 07:55:01;;;;;;;26.35;3.15;;;;;;;;;;4915102;29;20068;-63
2022/06/11 07:57:28;;;;;;;53.78;4.82;;;;;;;;;;4916603;29;20457;-65
2022/06/11 07:59:54;;;;;;;33.72;3.85;;;;;;;;;;4915184;29;20050;-63
2022/06/11 08:02:21;;;;;;;22.25;2.83;;;;;;;;;;4915878;29;20134;-66
2022/06/11 08:04:53;;;;;;;19.17;2.85;;;;;;;;;;4915204;29;20060;-66
2022/06/11 08:07:20;;;;;;;35.08;4.60;;;;;;;;;;4915337;29;20047;-67
2022/06/11 08:09:47;;;;;;;165.13;13.65;;;;;;;;;;4915644;29;20048;-66
2022/06/11 08:12:13;;;;;;;13.32;2.58;;;;;;;;;;4916730;29;20126;-65
2022/06/11 08:14:40;;;;;;;16.13;2.60;;;;;;;;;;4915150;29;20512;-57
2022/06/11 08:17:06;;;;;;;582.85;48.13;;;;;;;;;;4915367;29;20075;-57
2022/06/11 08:19:33;;;;;;;40.03;3.97;;;;;;;;;;4915701;29;20080;-57
2022/06/11 08:21:59;;;;;;;40.70;4.72;;;;;;;;;;4915352;29;20047;-57
2022/06/11 08:24:26;;;;;;;22.40;3.05;;;;;;;;;;4916405;29;20044;-57
2022/06/11 08:26:52;;;;;;;19.35;2.95;;;;;;;;;;4915400;29;20086;-57
2022/06/11 08:29:19;;;;;;;62.13;4.78;;;;;;;;;;4914946;29;20127;-57
2022/06/11 08:31:45;;;;;;;29.88;3.38;;;;;;;;;;4915325;29;20067;-58
2022/06/11 08:34:12;;;;;;;22.95;2.97;;;;;;;;;;4915169;29;20529;-58
2022/06/11 08:36:39;;;;;;;32.00;4.35;;;;;;;;;;4914895;29;20462;-58
2022/06/11 08:39:05;;;;;;;23.58;3.45;;;;;;;;;;4915721;29;20417;-58
2022/06/11 08:41:35;;;;;;;24.60;2.63;;;;;;;;;;4915156;29;20052;-58
2022/06/11 08:44:05;;;;;;;16.73;2.97;;;;;;;;;;4912356;29;21863;-59
2022/06/11 08:46:33;;;;;;;16.05;2.53;;;;;;;;;;4904293;29;20032;-57
2022/06/11 08:49:00;;;;;;;16.85;2.63;;;;;;;;;;4899887;29;20125;-57
2022/06/11 08:51:45;;;;;;;19.23;2.78;;;;;;;;;;4915342;29;20132;-58
2022/06/11 08:54:15;;;;;;;105.75;9.38;;;;;;;;;;4913896;29;20052;-58
2022/06/11 08:56:41;;;;;;;63.60;6.43;;;;;;;;;;4901774;29;20051;-59
2022/06/11 08:59:14;;;;;;;35.25;4.35;;;;;;;;;;4903332;29;20119;-59
2022/06/11 09:01:50;;;;;;;43.85;4.32;;;;;;;;;;4910266;29;20452;-59
2022/06/11 09:04:26;;;;;;;15.68;2.88;;;;;;;;;;4900307;29;20103;-58
2022/06/11 09:06:59;;;;;;;37.67;4.32;;;;;;;;;;4898272;29;20056;-59
2022/06/11 09:09:26;;;;;;;;;;;;;;;;;;4881549;29;20045;-58
2022/06/11 09:12:01;;;;;;;23.15;3.90;;;;;;;;;;4899967;29;19939;-58
2022/06/11 09:14:30;;;;;;;34.22;4.18;;;;;;;;;;4899862;29;20128;-58
2022/06/11 09:17:15;;;;;;;130.32;10.07;;;;;;;;;;4898522;29;20044;-59
2022/06/11 09:19:45;;;;;;;16.77;2.97;;;;;;;;;;4899670;29;20056;-59
2022/06/11 09:22:17;;;;;;;16.38;3.35;;;;;;;;;;4899947;29;20046;-58
2022/06/11 09:25:04;;;;;;;32.60;4.38;;;;;;;;;;4897083;29;20068;-58
2022/06/11 09:27:45;;;;;;;11.77;2.47;;;;;;;;;;4838997;29;20069;-59
2022/06/11 09:30:16;;;;;;;12.85;2.70;;;;;;;;;;4836941;29;20531;-59
2022/06/11 09:32:42;;;;;;;14.07;2.97;;;;;;;;;;4834360;29;20144;-58
2022/06/11 09:35:12;;;;;;;27.00;3.55;;;;;;;;;;4834091;29;20239;-58
2022/06/11 09:37:47;;;;;;;15.50;2.92;;;;;;;;;;4833897;29;20054;-59
2022/06/11 09:40:29;;;;;;;20.63;3.38;;;;;;;;;;4828235;29;20069;-58
2022/06/11 09:43:01;;;;;;;24.52;4.05;;;;;;;;;;4835384;29;20522;-59
2022/06/11 09:45:48;;;;;;;16.00;3.25;;;;;;;;;;4838696;29;20058;-58
2022/06/11 09:48:21;;;;;;;14.57;2.97;;;;;;;;;;4828328;29;20107;-58
2022/06/11 09:50:59;;;;;;;15.90;3.17;;;;;;;;;;4827592;29;20054;-58
2022/06/11 09:53:35;;;;;;;11.98;2.85;;;;;;;;;;4830210;29;20056;-58
2022/06/11 09:56:01;;;;;;;284.67;21.02;;;;;;;;;;4834478;29;20046;-58
2022/06/11 09:58:43;;;;;;;23.67;3.53;;;;;;;;;;4834280;29;20555;-58
2022/06/11 10:01:12;;;;;;;78.70;7.75;;;;;;;;;;4820208;29;20042;-58
2022/06/11 10:03:41;;;;;;;18.40;3.72;;;;;;;;;;4843911;29;20042;-59
2022/06/11 10:06:10;;;;;;;17.55;2.67;;;;;;;;;;4898925;29;20145;-58
2022/06/11 10:08:49;;;;;;;14.52;2.10;;;;;;;;;;4911205;29;20073;-59
2022/06/11 10:11:25;;;;;;;90.65;8.80;;;;;;;;;;4905449;29;20048;-58
2022/06/11 10:14:31;;;;;;;21.63;5.15;;;;;;;;;;4899755;29;20382;-58
2022/06/11 10:17:05;;;;;;;17.92;3.08;;;;;;;;;;4899667;29;20064;-59
2022/06/11 10:19:45;;;;;;;16.08;2.35;;;;;;;;;;4901964;29;20032;-58
2022/06/11 10:22:22;;;;;;;9.35;1.65;;;;;;;;;;4914131;29;20064;-59
2022/06/11 10:24:54;;;;;;;30.55;5.20;;;;;;;;;;4917839;29;20048;-60
2022/06/11 10:27:24;;;;;;;12.77;3.45;;;;;;;;;;4900904;29;20044;-59
2022/06/11 10:29:52;;;;;;;16.42;2.42;;;;;;;;;;4902574;29;20131;-59
2022/06/11 10:32:25;;;;;;;15.27;1.88;;;;;;;;;;4908662;29;20076;-59
2022/06/11 10:34:56;;;;;;;15.80;1.98;;;;;;;;;;4913429;29;20398;-59
2022/06/11 10:37:29;;;;;;;16.88;2.10;;;;;;;;;;4915226;29;20541;-59
2022/06/11 10:39:56;;;;;;;;;;;;;;;;;;4911464;29;20052;-59
2022/06/11 10:42:33;;;;;;;19.08;2.30;;;;;;;;;;4900507;29;19923;-59
2022/06/11 10:45:00;;;;;;;30.77;3.08;;;;;;;;;;4917241;29;20047;-59
2022/06/11 10:47:32;;;;;;;27.00;3.42;;;;;;;;;;4907206;29;20084;-59
2022/06/11 10:50:02;;;;;;;17.42;2.17;;;;;;;;;;4908562;29;20478;-59
2022/06/11 10:52:52;;;;;;;9.45;1.70;;;;;;;;;;4902042;29;20045;-60
2022/06/11 10:55:39;;;;;;;35.15;3.60;;;;;;;;;;4897463;29;20498;-60
2022/06/11 10:58:17;;;;;;;17.48;2.20;;;;;;;;;;4902706;29;20047;-59
2022/06/11 11:00:50;;;;;;;30.33;3.13;;;;;;;;;;4916850;29;20604;-59
2022/06/11 11:03:20;;;;;;;29.90;2.92;;;;;;;;;;4900719;29;20044;-60
2022/06/11 11:05:51;;;;;;;14.27;2.08;;;;;;;;;;4911294;29;20040;-59
2022/06/11 11:08:17;;;;;;;26.42;3.30;;;;;;;;;;4906110;29;20036;-59
2022/06/11 11:10:46;;;;;;;30.80;3.38;;;;;;;;;;4901326;29;20119;-59
2022/06/11 11:13:12;;;;;;;45.80;4.40;;;;;;;;;;4914520;29;20050;-60
2022/06/11 11:15:41;;;;;;;31.40;3.20;;;;;;;;;;4896977;29;20131;-60
2022/06/11 11:18:30;;;;;;;37.80;3.97;;;;;;;;;;4899811;29;20774;-59
2022/06/11 11:20:57;;;;;;;36.08;3.63;;;;;;;;;;4900424;29;20055;-59
2022/06/11 11:23:28;;;;;;;9.48;1.67;;;;;;;;;;4907770;29;20468;-62
2022/06/11 11:25:57;;;;;;;106.85;8.73;;;;;;;;;;4910204;29;20080;-62
2022/06/11 11:28:23;;;;;;;23.48;3.22;;;;;;;;;;4901893;29;20144;-63
2022/06/11 11:31:05;;;;;;;100.25;8.70;;;;;;;;;;4899377;29;20059;-61
2022/06/11 11:33:34;;;;;;;16.35;2.83;;;;;;;;;;4911651;29;20046;-62
2022/06/11 11:36:02;;;;;;;25.70;3.03;;;;;;;;;;4909313;29;20512;-62
2022/06/11 11:38:37;;;;;;;19.42;2.65;;;;;;;;;;4912631;29;20072;-59
2022/06/11 11:41:03;;;;;;;45.53;4.43;;;;;;;;;;4910179;29;20477;-58
2022/06/11 11:43:42;;;;;;;35.05;3.67;;;;;;;;;;4902001;29;20104;-62
2022/06/11 11:46:14;;;;;;;20.65;2.58;;;;;;;;;;4898742;29;20051;-72
2022/06/11 11:48:46;;;;;;;31.08;3.20;;;;;;;;;;4918504;29;20062;-62
2022/06/11 11:51:19;;;;;;;62.72;6.40;;;;;;;;;;4899825;29;20143;-72
2022/06/11 11:53:49;;;;;;;37.75;3.00;;;;;;;;;;4911225;29;20040;-70
2022/06/11 11:56:21;;;;;;;31.52;2.85;;;;;;;;;;4908161;29;20131;-72
2022/06/11 11:58:51;;;;;;;24.20;2.72;;;;;;;;;;4902331;29;20067;-63
2022/06/11 12:01:23;;;;;;;124.70;9.07;;;;;;;;;;4914268;29;20056;-58
2022/06/11 12:03:57;;;;;;;27.38;2.97;;;;;;;;;;4897454;29;20044;-67
2022/06/11 12:06:31;;;;;;;16.40;2.17;;;;;;;;;;4915498;29;20040;-58
2022/06/11 12:08:58;;;;;;;14.50;2.30;;;;;;;;;;4913487;29;20489;-62
2022/06/11 12:11:28;;;;;;;14.77;2.05;;;;;;;;;;4905674;29;20075;-61
2022/06/11 12:14:02;;;;;;;18.05;2.08;;;;;;;;;;4901404;29;20462;-60
2022/06/11 12:16:30;;;;;;;18.75;2.08;;;;;;;;;;4901137;29;20108;-67
2022/06/11 12:19:04;;;;;;;25.38;2.72;;;;;;;;;;4915922;29;20115;-59
2022/06/11 12:21:30;;;;;;;;;;;;;;;;;;4898244;29;20127;-71
2022/06/11 12:23:57;;;;;;;16.85;2.25;;;;;;;;;;4912016;29;19994;-71
2022/06/11 12:26:26;;;;;;;32.88;3.72;;;;;;;;;;4911639;29;20087;-60
2022/06/11 12:28:57;;;;;;;17.30;2.38;;;;;;;;;;4919750;29;20040;-74
2022/06/11 12:31:26;;;;;;;51.97;4.53;;;;;;;;;;4915336;29;20040;-72
2022/06/11 12:33:53;;;;;;;46.30;4.03;;;;;;;;;;4905346;29;20043;-70
2022/06/11 12:36:19;;;;;;;19.33;2.20;;;;;;;;;;4911049;29;20095;-72
2022/06/11 12:38:51;;;;;;;19.80;3.75;;;;;;;;;;4902793;29;20045;-72
2022/06/11 12:41:18;;;;;;;30.43;3.20;;;;;;;;;;4905328;29;20117;-72
2022/06/11 12:43:44;;;;;;;53.72;5.13;;;;;;;;;;4910323;29;20063;-67
2022/06/11 12:46:29;;;;;;;43.30;4.47;;;;;;;;;;4911783;29;20706;-68
2022/06/11 12:49:16;;;;;;;42.35;3.80;;;;;;;;;;4898072;29;20053;-72
2022/06/11 12:52:01;;;;;;;37.00;3.63;;;;;;;;;;4909902;29;20134;-73
2022/06/11 12:54:36;;;;;;;17.98;2.20;;;;;;;;;;4915670;29;20048;-70
2022/06/11 12:57:34;;;;;;;10.43;1.83;;;;;;;;;;4915004;29;20401;-70
2022/06/11 13:00:04;;;;;;;63.63;5.20;;;;;;;;;;4833959;29;20103;-67
2022/06/11 13:02:49;;;;;;;40.35;3.38;;;;;;;;;;4827288;29;20157;-73
2022/06/11 13:05:45;;;;;;;42.22;4.80;;;;;;;;;;4823653;29;20061;-62
2022/06/11 13:08:18;;;;;;;42.17;5.35;;;;;;;;;;4812016;29;20205;-62
2022/06/11 13:10:51;;;;;;;30.40;2.72;;;;;;;;;;4823878;29;20066;-63
2022/06/11 13:13:26;;;;;;;16.38;2.50;;;;;;;;;;4824459;29;20042;-58
2022/06/11 13:15:57;;;;;;;49.58;4.47;;;;;;;;;;4822708;29;20397;-71
2022/06/11 13:18:31;;;;;;;25.50;3.20;;;;;;;;;;4822229;29;20133;-58
2022/06/11 13:21:36;;;;;;;42.90;3.70;;;;;;;;;;4823569;29;20050;-58
2022/06/11 13:24:19;;;;;;;25.20;2.22;;;;;;;;;;4783072;30;20061;-61
2022/06/11 13:26:46;;;;;;;;;;;;;;;;;;4783866;30;20585;-57
2022/06/11 13:29:18;;;;;;;20.77;2.30;;;;;;;;;;4785017;29;19930;-68
2022/06/11 13:31:55;;;;;;;34.63;3.15;;;;;;;;;;4784428;29;20051;-58
2022/06/11 13:34:28;;;;;;;22.73;2.60;;;;;;;;;;4778505;30;20096;-58
2022/06/11 13:37:06;;;;;;;62.53;4.60;;;;;;;;;;4854749;29;20136;-58
2022/06/11 13:39:33;;;;;;;12.35;1.67;;;;;;;;;;4857357;29;20054;-58
2022/06/11 13:42:02;;;;;;;90.05;6.45;;;;;;;;;;4856262;29;20110;-58
2022/06/11 13:44:47;;;;;;;32.15;2.47;;;;;;;;;;4856602;29;20581;-58
2022/06/11 13:47:25;;;;;;;28.48;2.85;;;;;;;;;;4851557;29;20125;-58
2022/06/11 13:50:01;;;;;;;26.85;2.83;;;;;;;;;;4856395;29;20049;-58
2022/06/11 13:55:20;;;;;;;18.98;2.45;;;;;;;;;;4890703;29;20400;-70
2022/06/11 13:57:54;;;;;;;32.80;2.78;;;;;;;;;;4900042;29;20056;-72
2022/06/11 14:00:31;;;;;;;61.60;4.70;;;;;;;;;;4914659;29;20091;-64
2022/06/11 14:03:14;;;;;;;127.25;9.73;;;;;;;;;;4913505;29;20096;-67
2022/06/11 14:05:46;;;;;;;18.45;2.13;;;;;;;;;;4911831;29;20059;-65
2022/06/11 14:08:20;;;;;;;43.88;4.22;;;;;;;;;;4911440;29;20032;-60
2022/06/11 14:10:48;;;;;;;16.10;2.33;;;;;;;;;;4907562;29;20051;-63
2022/06/11 14:13:21;;;;;;;21.42;2.38;;;;;;;;;;4909817;29;20131;-60
2022/06/11 14:15:48;;;;;;;;;;;;;;;;;;4917594;29;20048;-59
2022/06/11 14:18:21;;;;;;;24.77;2.60;;;;;;;;;;4902410;29;20033;-63
2022/06/11 14:20:55;;;;;;;21.95;2.20;;;;;;;;;;4902605;29;20061;-70
2022/06/11 14:23:22;;;;;;;15.07;2.35;;;;;;;;;;4906662;29;20052;-68
2022/06/11 14:26:10;;;;;;;24.88;2.78;;;;;;;;;;4909556;29;20052;-69
2022/06/11 14:28:40;;;;;;;56.92;4.55;;;;;;;;;;4910633;29;20051;-64
2022/06/11 14:31:07;;;;;;;22.60;2.50;;;;;;;;;;4913045;29;20056;-58
2022/06/11 14:33:36;;;;;;;55.22;4.70;;;;;;;;;;4907924;29;20471;-58
2022/06/11 14:36:18;;;;;;;24.15;3.17;;;;;;;;;;4913425;29;20163;-58
2022/06/11 14:38:44;;;;;;;21.65;2.13;;;;;;;;;;4913453;29;20048;-57
2022/06/11 14:41:11;;;;;;;27.63;2.60;;;;;;;;;;4913124;29;20043;-59
2022/06/11 14:43:53;;;;;;;17.55;2.08;;;;;;;;;;4909991;29;20052;-58
2022/06/11 14:46:28;;;;;;;25.13;1.95;;;;;;;;;;4909961;29;20428;-68
2022/06/11 14:48:57;;;;;;;61.33;4.80;;;;;;;;;;4909297;29;20036;-70
2022/06/11 14:51:24;;;;;;;21.42;2.35;;;;;;;;;;4911018;29;20421;-58
2022/06/11 14:53:58;;;;;;;17.42;2.00;;;;;;;;;;4913347;29;20059;-64
2022/06/11 14:56:46;;;;;;;20.48;2.50;;;;;;;;;;4910706;29;20123;-70
2022/06/11 14:59:32;;;;;;;28.55;3.67;;;;;;;;;;4909178;29;20573;-58